Time;durP1;ratioP1;P1;durP2;ratioP2;P2;SDS_P1;SDS_P2;PMS_P1;PMS_P2;Temp;Humidity;BMP_temperature;BMP_pressure;BME280_temperature;BME280_humidity;BME280_pressure;Samples;Min_cycle;Max_cycle;Signal;HPM_P1;HPM_P2
2021/08/15 00:01:08;;;;;;;17.67;4.97;;;;;;;-145.71;100.00;60690.53;5035228;28;20478;-80
2021/08/15 00:03:33;;;;;;;11.15;4.55;;;;;;;-145.71;100.00;60690.53;5034353;28;20044;-80
2021/08/15 00:05:59;;;;;;;19.30;4.55;;;;;;;-145.71;100.00;60690.53;5033450;28;20481;-80
2021/08/15 00:08:24;;;;;;;14.90;4.00;;;;;;;-145.71;100.00;60690.53;5014982;28;20022;-80
2021/08/15 00:10:50;;;;;;;14.60;4.10;;;;;;;-145.71;100.00;60690.53;5032264;28;20091;-80
2021/08/15 00:13:15;;;;;;;11.85;4.53;;;;;;;-145.71;100.00;60690.53;5017802;28;20371;-81
2021/08/15 00:15:41;;;;;;;20.25;5.00;;;;;;;-145.71;100.00;60690.53;5034717;28;20030;-80
2021/08/15 00:18:06;;;;;;;12.65;4.68;;;;;;;-145.71;100.00;60690.53;5033285;28;20041;-80
2021/08/15 00:20:32;;;;;;;17.38;4.00;;;;;;;-145.71;100.00;60690.53;5018020;28;20025;-80
2021/08/15 00:22:58;;;;;;;13.20;4.38;;;;;;;-145.71;100.00;60690.53;5034231;28;20041;-80
2021/08/15 00:25:24;;;;;;;19.23;4.35;;;;;;;-145.71;100.00;60690.53;5033221;28;20091;-80
2021/08/15 00:27:50;;;;;;;16.65;4.85;;;;;;;-145.71;100.00;60690.53;5032278;28;20033;-80
2021/08/15 00:30:17;;;;;;;16.70;3.90;;;;;;;-145.71;100.00;60690.53;5031468;28;20117;-80
2021/08/15 00:32:44;;;;;;;22.33;5.07;;;;;;;-145.71;100.00;60690.53;5013319;28;20047;-80
2021/08/15 00:35:10;;;;;;;15.95;4.97;;;;;;;-145.71;100.00;60690.53;5031686;28;20481;-80
2021/08/15 00:37:36;;;;;;;20.15;4.82;;;;;;;-145.71;100.00;60690.53;5016866;28;20036;-80
2021/08/15 00:40:03;;;;;;;18.50;5.10;;;;;;;-145.71;100.00;60690.53;5033301;28;20606;-80
2021/08/15 00:42:28;;;;;;;16.92;4.25;;;;;;;-145.71;100.00;60690.53;5035642;28;20060;-80
2021/08/15 00:44:54;;;;;;;20.52;5.28;;;;;;;-145.71;100.00;60690.53;5034733;28;20029;-80
2021/08/15 00:47:20;;;;;;;18.42;4.40;;;;;;;-145.71;100.00;60690.53;5033733;28;20056;-81
2021/08/15 00:49:46;;;;;;;16.88;4.00;;;;;;;-145.71;100.00;60690.53;5014778;28;20053;-81
2021/08/15 00:52:11;;;;;;;18.05;4.45;;;;;;;-145.71;100.00;60690.53;5031551;28;20493;-81
2021/08/15 00:54:36;;;;;;;16.10;4.35;;;;;;;-145.71;100.00;60690.53;5031120;28;20030;-81
2021/08/15 00:57:02;;;;;;;10.95;4.03;;;;;;;-145.71;100.00;60690.53;5031069;28;20120;-80
2021/08/15 00:59:27;;;;;;;16.63;4.25;;;;;;;-145.71;100.00;60690.53;5030773;28;20711;-80
2021/08/15 01:01:54;;;;;;;12.55;3.60;;;;;;;-145.71;100.00;60690.53;5032579;28;20025;-81
2021/08/15 01:04:26;;;;;;;17.73;4.68;;;;;;;-145.71;100.00;60690.53;5034360;28;20029;-81
2021/08/15 01:06:52;;;;;;;24.98;4.28;;;;;;;-145.71;100.00;60690.53;5016819;28;20124;-81
2021/08/15 01:09:22;;;;;;;16.85;4.20;;;;;;;-145.71;100.00;60690.53;5033909;28;20029;-81
2021/08/15 01:11:48;;;;;;;15.20;4.32;;;;;;;-145.71;100.00;60690.53;5014542;28;20079;-81
2021/08/15 01:14:13;;;;;;;18.73;5.00;;;;;;;-145.71;100.00;60690.53;5031850;28;20029;-81
2021/08/15 01:16:42;;;;;;;17.95;4.30;;;;;;;-145.71;100.00;60690.53;5031469;28;20485;-81
2021/08/15 01:19:09;;;;;;;13.25;4.30;;;;;;;-145.71;100.00;60690.53;5030545;28;20037;-81
2021/08/15 01:21:35;;;;;;;15.82;4.70;;;;;;;-145.71;100.00;60690.53;5030072;28;20030;-80
2021/08/15 01:24:01;;;;;;;15.75;4.88;;;;;;;-145.71;100.00;60690.53;5029840;28;20053;-80
2021/08/15 01:26:26;;;;;;;17.35;4.47;;;;;;;-145.71;100.00;60690.53;5032673;28;20032;-81
2021/08/15 01:28:53;;;;;;;15.15;4.03;;;;;;;-145.71;100.00;60690.53;5033136;28;20025;-81
2021/08/15 01:31:23;;;;;;;22.33;4.88;;;;;;;-145.71;100.00;60690.53;5033645;28;20029;-81
2021/08/15 01:33:48;;;;;;;14.57;4.47;;;;;;;-145.71;100.00;60690.53;5015013;28;20048;-81
2021/08/15 01:36:16;;;;;;;16.63;4.55;;;;;;;-145.71;100.00;60690.53;5031615;28;20025;-81
2021/08/15 01:38:42;;;;;;;10.35;4.45;;;;;;;-145.71;100.00;60690.53;5030463;28;20468;-81
2021/08/15 01:41:09;;;;;;;11.65;4.15;;;;;;;-145.71;100.00;60690.53;5030124;28;20105;-81
2021/08/15 01:43:52;;;;;;;20.20;4.60;;;;;;;-145.71;100.00;60690.53;5030304;28;20025;-81
2021/08/15 01:46:19;;;;;;;16.00;4.18;;;;;;;-145.71;100.00;60690.53;5033760;28;20025;-81
2021/08/15 01:48:46;;;;;;;20.83;4.68;;;;;;;-145.71;100.00;60690.53;5014035;28;20029;-81
2021/08/15 01:51:11;;;;;;;14.80;4.63;;;;;;;-145.71;100.00;60690.53;5032668;28;20112;-82
2021/08/15 01:53:37;;;;;;;13.50;4.38;;;;;;;-145.71;100.00;60690.53;5015129;28;20529;-81
2021/08/15 01:56:03;;;;;;;17.80;4.38;;;;;;;-145.71;100.00;60690.53;5032213;28;20097;-81
2021/08/15 01:58:28;;;;;;;12.27;3.72;;;;;;;-145.71;100.00;60690.53;5031876;28;20112;-81
2021/08/15 02:00:54;;;;;;;14.98;4.05;;;;;;;-145.71;100.00;60690.53;5031388;28;20155;-81
2021/08/15 02:03:19;;;;;;;16.88;4.70;;;;;;;-145.71;100.00;60690.53;5030735;28;20029;-81
2021/08/15 02:05:44;;;;;;;14.60;3.90;;;;;;;-145.71;100.00;60690.53;5012598;28;20528;-81
2021/08/15 02:08:10;;;;;;;15.20;3.58;;;;;;;-145.71;100.00;60690.53;5014489;28;20032;-81
2021/08/15 02:10:37;;;;;;;15.25;3.90;;;;;;;-145.71;100.00;60690.53;5032954;28;20025;-81
2021/08/15 02:13:04;;;;;;;12.38;3.55;;;;;;;-145.71;100.00;60690.53;5031740;28;20034;-81
2021/08/15 02:15:29;;;;;;;15.93;4.22;;;;;;;-145.71;100.00;60690.53;5031549;28;20057;-81
2021/08/15 02:17:55;;;;;;;17.05;3.60;;;;;;;-145.71;100.00;60690.53;5033252;28;20121;-81
2021/08/15 02:20:21;;;;;;;19.20;4.00;;;;;;;-145.71;100.00;60690.53;5032003;28;20477;-81
2021/08/15 02:22:47;;;;;;;11.88;3.53;;;;;;;-145.71;100.00;60690.53;5031136;28;20079;-81
2021/08/15 02:25:15;;;;;;;12.35;3.28;;;;;;;-145.71;100.00;60690.53;5030860;28;20061;-81
2021/08/15 02:27:41;;;;;;;15.65;3.63;;;;;;;-145.71;100.00;60690.53;5030768;28;20113;-81
2021/08/15 02:30:09;;;;;;;13.32;3.25;;;;;;;-145.71;100.00;60690.53;5031808;28;20021;-81
2021/08/15 02:32:35;;;;;;;12.63;3.40;;;;;;;-145.71;100.00;60690.53;5033023;28;20029;-81
2021/08/15 02:35:00;;;;;;;16.98;4.15;;;;;;;-145.71;100.00;60690.53;5031928;28;20060;-81
2021/08/15 02:37:26;;;;;;;11.35;3.88;;;;;;;-145.71;100.00;60690.53;5012634;28;20026;-81
2021/08/15 02:39:52;;;;;;;14.85;3.67;;;;;;;-145.71;100.00;60690.53;5030212;28;20036;-80
2021/08/15 02:42:18;;;;;;;13.00;3.30;;;;;;;-145.71;100.00;60690.53;5014283;28;20041;-80
2021/08/15 02:44:44;;;;;;;8.75;2.92;;;;;;;-145.71;100.00;60690.53;5032412;28;20037;-81
2021/08/15 02:47:10;;;;;;;14.10;3.80;;;;;;;-145.71;100.00;60690.53;5031682;28;20425;-80
2021/08/15 02:49:40;;;;;;;10.27;3.70;;;;;;;-145.71;100.00;60690.53;5030773;28;20382;-81
2021/08/15 02:52:06;;;;;;;16.70;4.53;;;;;;;-145.71;100.00;60690.53;5032769;28;20059;-81
2021/08/15 02:54:31;;;;;;;14.85;3.83;;;;;;;-145.71;100.00;60690.53;5016918;28;20025;-81
2021/08/15 02:56:57;;;;;;;17.63;2.83;;;;;;;-145.71;100.00;60690.53;5035480;28;20167;-81
2021/08/15 02:59:22;;;;;;;12.55;3.35;;;;;;;-145.71;100.00;60690.53;5034686;28;20025;-81
2021/08/15 03:01:47;;;;;;;11.73;2.75;;;;;;;-145.71;100.00;60690.53;5033326;28;20029;-80
2021/08/15 03:04:12;;;;;;;15.95;3.00;;;;;;;-145.71;100.00;60690.53;5033568;28;20032;-81
2021/08/15 03:06:41;;;;;;;12.60;3.65;;;;;;;-145.71;100.00;60690.53;5036180;28;20033;-81
2021/08/15 03:09:06;;;;;;;10.93;2.92;;;;;;;-145.71;100.00;60690.53;5035470;28;20025;-81
2021/08/15 03:11:32;;;;;;;15.27;3.83;;;;;;;-145.71;100.00;60690.53;5034793;28;20029;-81
2021/08/15 03:13:57;;;;;;;10.20;2.88;;;;;;;-145.71;100.00;60690.53;5036090;28;20091;-81
2021/08/15 03:16:22;;;;;;;12.25;4.07;;;;;;;-145.71;100.00;60690.53;5035603;28;20116;-81
2021/08/15 03:18:48;;;;;;;8.95;2.67;;;;;;;-145.71;100.00;60690.53;5034658;28;20116;-81
2021/08/15 03:21:13;;;;;;;13.07;2.92;;;;;;;-145.71;100.00;60690.53;5016101;28;20503;-81
2021/08/15 03:23:38;;;;;;;13.43;3.28;;;;;;;-145.71;100.00;60690.53;5033234;28;20136;-81
2021/08/15 03:26:05;;;;;;;12.55;3.85;;;;;;;-145.71;100.00;60690.53;5014385;28;20037;-80
2021/08/15 03:28:30;;;;;;;13.27;4.28;;;;;;;-145.71;100.00;60690.53;5036431;28;20025;-81
2021/08/15 03:30:55;;;;;;;14.65;3.15;;;;;;;-145.71;100.00;60690.53;5016750;28;20084;-81
2021/08/15 03:33:21;;;;;;;7.53;2.70;;;;;;;-145.71;100.00;60690.53;5018401;28;20032;-81
2021/08/15 03:35:46;;;;;;;13.35;3.10;;;;;;;-145.71;100.00;60690.53;5035855;28;20056;-81
2021/08/15 03:38:11;;;;;;;12.70;3.53;;;;;;;-145.71;100.00;60690.53;5034095;28;20021;-81
2021/08/15 03:40:36;;;;;;;15.77;4.32;;;;;;;-145.71;100.00;60690.53;5033226;28;20082;-80
2021/08/15 03:43:02;;;;;;;13.82;3.20;;;;;;;-145.71;100.00;60690.53;5032715;28;20072;-81
2021/08/15 03:45:27;;;;;;;12.55;2.85;;;;;;;-145.71;100.00;60690.53;5032586;28;20044;-80
2021/08/15 03:47:53;;;;;;;10.90;3.17;;;;;;;-145.71;100.00;60690.53;5014056;28;20060;-80
2021/08/15 03:50:18;;;;;;;14.43;3.58;;;;;;;-145.71;100.00;60690.53;5031854;28;20052;-81
2021/08/15 03:52:43;;;;;;;16.73;4.10;;;;;;;-145.71;100.00;60690.53;5035436;28;20069;-81
2021/08/15 03:55:11;;;;;;;11.75;2.80;;;;;;;-145.71;100.00;60690.53;5035754;28;20366;-81
2021/08/15 03:57:41;;;;;;;12.90;2.75;;;;;;;-145.71;100.00;60690.53;5034919;28;20033;-81
2021/08/15 04:00:07;;;;;;;12.63;3.33;;;;;;;-145.71;100.00;60690.53;5034439;28;20100;-81
2021/08/15 04:02:32;;;;;;;13.82;3.25;;;;;;;-145.71;100.00;60690.53;5015497;28;20052;-81
2021/08/15 04:04:58;;;;;;;12.80;3.67;;;;;;;-145.71;100.00;60690.53;5032338;28;20041;-81
2021/08/15 04:07:23;;;;;;;12.43;3.30;;;;;;;-145.71;100.00;60690.53;5014238;28;20535;-81
2021/08/15 04:09:48;;;;;;;19.17;4.32;;;;;;;-145.71;100.00;60690.53;5031776;28;20045;-80
2021/08/15 04:12:14;;;;;;;13.60;4.43;;;;;;;-145.71;100.00;60690.53;5031463;28;20504;-80
2021/08/15 04:14:39;;;;;;;15.75;3.08;;;;;;;-145.71;100.00;60690.53;5031630;28;20055;-80
2021/08/15 04:17:04;;;;;;;15.73;3.83;;;;;;;-145.71;100.00;60690.53;5031237;28;20033;-80
2021/08/15 04:19:30;;;;;;;23.75;4.45;;;;;;;-145.71;100.00;60690.53;5017622;28;20030;-80
2021/08/15 04:21:55;;;;;;;11.52;3.00;;;;;;;-145.71;100.00;60690.53;5016895;28;20481;-80
2021/08/15 04:24:20;;;;;;;15.20;3.45;;;;;;;-145.71;100.00;60690.53;5016204;28;20457;-80
2021/08/15 04:26:46;;;;;;;15.43;3.28;;;;;;;-145.71;100.00;60690.53;5015223;28;20033;-81
2021/08/15 04:29:13;;;;;;;11.35;3.65;;;;;;;-145.71;100.00;60690.53;5032615;28;20775;-80
2021/08/15 04:31:40;;;;;;;16.08;3.97;;;;;;;-145.71;100.00;60690.53;5032232;28;20049;-80
2021/08/15 04:34:05;;;;;;;16.40;3.72;;;;;;;-145.71;100.00;60690.53;5031428;28;20040;-80
2021/08/15 04:36:31;;;;;;;18.88;4.85;;;;;;;-145.71;100.00;60690.53;5013405;28;20029;-79
2021/08/15 04:38:56;;;;;;;12.77;4.25;;;;;;;-145.71;100.00;60690.53;5030996;28;20029;-80
2021/08/15 04:41:21;;;;;;;16.30;4.28;;;;;;;-145.71;100.00;60690.53;5013291;28;20029;-80
2021/08/15 04:43:46;;;;;;;15.93;4.60;;;;;;;-145.71;100.00;60690.53;5035420;28;20429;-81
2021/08/15 04:46:12;;;;;;;13.70;4.00;;;;;;;-145.71;100.00;60690.53;5034532;28;20033;-80
2021/08/15 04:48:37;;;;;;;17.35;4.18;;;;;;;-145.71;100.00;60690.53;5033722;28;20432;-80
2021/08/15 04:51:03;;;;;;;12.05;4.32;;;;;;;-145.71;100.00;60690.53;5032804;28;20116;-81
2021/08/15 04:53:28;;;;;;;15.80;4.70;;;;;;;-145.71;100.00;60690.53;5013946;28;20029;-80
2021/08/15 04:55:54;;;;;;;13.15;4.70;;;;;;;-145.71;100.00;60690.53;5013468;28;20037;-81
2021/08/15 04:58:19;;;;;;;11.00;4.07;;;;;;;-145.71;100.00;60690.53;5030546;28;20457;-80
2021/08/15 05:00:44;;;;;;;19.00;4.50;;;;;;;-145.71;100.00;60690.53;5033423;28;20116;-81
2021/08/15 05:03:11;;;;;;;16.83;4.65;;;;;;;-145.71;100.00;60690.53;5016247;28;20033;-81
2021/08/15 05:05:39;;;;;;;16.67;5.63;;;;;;;-145.71;100.00;60690.53;5016773;28;20446;-81
2021/08/15 05:08:05;;;;;;;16.00;5.25;;;;;;;-145.71;100.00;60690.53;5033358;28;20029;-81
2021/08/15 05:10:30;;;;;;;18.85;5.22;;;;;;;-145.71;100.00;60690.53;5031973;28;20069;-80
2021/08/15 05:12:55;;;;;;;14.68;5.35;;;;;;;-145.71;100.00;60690.53;5031576;28;20067;-80
2021/08/15 05:15:21;;;;;;;13.85;4.82;;;;;;;-145.71;100.00;60690.53;5030968;28;20549;-80
2021/08/15 05:17:46;;;;;;;20.08;4.63;;;;;;;-145.71;100.00;60690.53;5030707;28;20703;-80
2021/08/15 05:20:12;;;;;;;12.50;4.60;;;;;;;-145.71;100.00;60690.53;5030376;28;20017;-80
2021/08/15 05:22:37;;;;;;;13.90;4.25;;;;;;;-145.71;100.00;60690.53;5034026;28;20021;-80
2021/08/15 05:25:03;;;;;;;17.92;5.88;;;;;;;-145.71;100.00;60690.53;5033461;28;20045;-81
2021/08/15 05:27:28;;;;;;;19.95;4.13;;;;;;;-145.71;100.00;60690.53;5014671;28;20409;-80
2021/08/15 05:29:54;;;;;;;25.08;6.20;;;;;;;-145.71;100.00;60690.53;5034543;28;20069;-80
2021/08/15 05:32:19;;;;;;;15.25;5.55;;;;;;;-145.71;100.00;60690.53;5014589;28;20128;-80
2021/08/15 05:34:44;;;;;;;14.07;4.88;;;;;;;-145.71;100.00;60690.53;5032957;28;20029;-81
2021/08/15 05:37:09;;;;;;;19.80;5.13;;;;;;;-145.71;100.00;60690.53;5014044;28;20465;-80
2021/08/15 05:39:35;;;;;;;15.60;4.88;;;;;;;-145.71;100.00;60690.53;5031710;28;20041;-80
2021/08/15 05:42:00;;;;;;;21.55;5.40;;;;;;;-145.71;100.00;60690.53;5012469;28;20083;-80
2021/08/15 05:44:25;;;;;;;16.33;6.15;;;;;;;-145.71;100.00;60690.53;5030703;28;20057;-81
2021/08/15 05:46:51;;;;;;;16.17;5.45;;;;;;;-145.71;100.00;60690.53;5031080;28;20033;-81
2021/08/15 05:49:16;;;;;;;14.07;5.30;;;;;;;-145.71;100.00;60690.53;5034220;28;20033;-80
2021/08/15 05:51:41;;;;;;;21.77;5.78;;;;;;;-145.71;100.00;60690.53;5033579;28;20033;-81
2021/08/15 05:54:07;;;;;;;14.27;5.53;;;;;;;-145.71;100.00;60690.53;5031966;28;20083;-80
2021/08/15 05:56:33;;;;;;;21.58;5.93;;;;;;;-145.71;100.00;60690.53;5014157;28;20033;-81
2021/08/15 05:58:59;;;;;;;19.38;6.05;;;;;;;-145.71;100.00;60690.53;5015332;28;20030;-80
2021/08/15 06:01:24;;;;;;;18.13;5.45;;;;;;;-145.71;100.00;60690.53;5014346;28;20456;-80
2021/08/15 06:03:50;;;;;;;15.45;6.13;;;;;;;-145.71;100.00;60690.53;5031746;28;20036;-80
2021/08/15 06:06:15;;;;;;;15.95;5.55;;;;;;;-145.71;100.00;60690.53;5030538;28;20517;-80
2021/08/15 06:08:40;;;;;;;14.30;5.68;;;;;;;-145.71;100.00;60690.53;5033520;28;20021;-80
2021/08/15 06:11:06;;;;;;;13.80;4.80;;;;;;;-145.71;100.00;60690.53;5033094;28;20108;-80
2021/08/15 06:13:31;;;;;;;16.35;5.60;;;;;;;-145.71;100.00;60690.53;5032095;28;20041;-80
2021/08/15 06:15:56;;;;;;;15.18;5.43;;;;;;;-145.71;100.00;60690.53;5030560;28;20586;-80
2021/08/15 06:18:22;;;;;;;20.90;6.03;;;;;;;-145.71;100.00;60690.53;5013140;28;20021;-80
2021/08/15 06:20:48;;;;;;;17.75;5.40;;;;;;;-145.71;100.00;60690.53;5032835;28;20417;-81
2021/08/15 06:23:13;;;;;;;21.20;5.72;;;;;;;-145.71;100.00;60690.53;5032145;28;20036;-80
2021/08/15 06:25:38;;;;;;;15.38;4.40;;;;;;;-145.71;100.00;60690.53;5013546;28;20029;-81
2021/08/15 06:28:04;;;;;;;17.77;5.10;;;;;;;-145.71;100.00;60690.53;5031661;28;20207;-80
2021/08/15 06:30:29;;;;;;;15.30;4.55;;;;;;;-145.71;100.00;60690.53;5017434;28;20049;-81
2021/08/15 06:32:55;;;;;;;15.82;4.47;;;;;;;-145.71;100.00;60690.53;5037171;28;20440;-80
2021/08/15 06:35:25;;;;;;;21.45;4.97;;;;;;;-145.71;100.00;60690.53;5036612;28;20083;-80
2021/08/15 06:37:53;;;;;;;21.50;5.82;;;;;;;-145.71;100.00;60690.53;5035803;28;20532;-80
2021/08/15 06:40:20;;;;;;;21.60;4.95;;;;;;;-145.71;100.00;60690.53;5035009;28;20104;-81
2021/08/15 06:42:45;;;;;;;19.25;5.35;;;;;;;-145.71;100.00;60690.53;5034280;28;20040;-81
2021/08/15 06:45:11;;;;;;;16.13;5.53;;;;;;;-145.71;100.00;60690.53;5035175;28;20025;-81
2021/08/15 06:47:37;;;;;;;16.42;5.32;;;;;;;-145.71;100.00;60690.53;5037558;28;20511;-81
2021/08/15 06:50:04;;;;;;;15.25;4.50;;;;;;;-145.71;100.00;60690.53;5035640;28;20040;-81
2021/08/15 06:52:30;;;;;;;13.35;4.82;;;;;;;-145.71;100.00;60690.53;5016639;28;20067;-80
2021/08/15 06:54:57;;;;;;;17.42;5.20;;;;;;;-145.71;100.00;60690.53;5034517;28;20034;-81
2021/08/15 06:57:23;;;;;;;14.27;5.13;;;;;;;-145.71;100.00;60690.53;5033903;28;20443;-81
2021/08/15 06:59:48;;;;;;;16.90;5.20;;;;;;;-145.71;100.00;60690.53;5036945;28;20022;-81
2021/08/15 07:02:13;;;;;;;19.40;5.47;;;;;;;-145.71;100.00;60690.53;5035412;28;20171;-81
2021/08/15 07:04:39;;;;;;;15.00;4.78;;;;;;;-145.71;100.00;60690.53;5016758;28;20106;-81
2021/08/15 07:07:04;;;;;;;18.48;6.03;;;;;;;-145.71;100.00;60690.53;5016410;28;20029;-81
2021/08/15 07:09:29;;;;;;;18.83;5.30;;;;;;;-145.71;100.00;60690.53;5033857;28;20064;-81
2021/08/15 07:11:55;;;;;;;16.90;5.07;;;;;;;-145.71;100.00;60690.53;5018085;28;20028;-81
2021/08/15 07:14:20;;;;;;;15.10;4.30;;;;;;;-145.71;100.00;60690.53;5034980;28;20366;-81
2021/08/15 07:16:45;;;;;;;12.93;4.22;;;;;;;-145.71;100.00;60690.53;5034073;28;20041;-81
2021/08/15 07:19:10;;;;;;;19.23;4.45;;;;;;;-145.71;100.00;60690.53;5035198;28;20040;-81
2021/08/15 07:21:36;;;;;;;17.45;4.28;;;;;;;-145.71;100.00;60690.53;5036320;28;20032;-81
2021/08/15 07:24:01;;;;;;;12.93;3.60;;;;;;;-145.71;100.00;60690.53;5036003;28;20045;-81
2021/08/15 07:26:26;;;;;;;21.05;4.80;;;;;;;-145.71;100.00;60690.53;5034917;28;20056;-81
2021/08/15 07:28:53;;;;;;;14.70;3.67;;;;;;;-145.71;100.00;60690.53;5015713;28;20052;-81
2021/08/15 07:31:18;;;;;;;11.35;3.85;;;;;;;-145.71;100.00;60690.53;5033503;28;20033;-80
2021/08/15 07:33:43;;;;;;;12.73;3.55;;;;;;;-145.71;100.00;60690.53;5017449;28;20032;-81
2021/08/15 07:36:09;;;;;;;11.52;3.70;;;;;;;-145.71;100.00;60690.53;5035684;28;20082;-81
2021/08/15 07:38:34;;;;;;;12.77;3.83;;;;;;;-145.71;100.00;60690.53;5034207;28;20473;-80
2021/08/15 07:40:59;;;;;;;11.70;3.08;;;;;;;-145.71;100.00;60690.53;5033007;28;20108;-81
2021/08/15 07:43:25;;;;;;;19.92;5.40;;;;;;;-145.71;100.00;60690.53;5036732;28;20033;-81
2021/08/15 07:45:51;;;;;;;25.20;4.57;;;;;;;-145.71;100.00;60690.53;5035662;28;20025;-81
2021/08/15 07:48:16;;;;;;;11.73;2.88;;;;;;;-145.71;100.00;60690.53;5016923;28;20032;-80
2021/08/15 07:50:42;;;;;;;9.95;3.25;;;;;;;-145.71;100.00;60690.53;5033962;28;20025;-81
2021/08/15 07:53:15;;;;;;;18.80;4.57;;;;;;;-145.71;100.00;60690.53;5015327;28;20021;-80
2021/08/15 07:55:41;;;;;;;14.07;3.58;;;;;;;-145.71;100.00;60690.53;5014794;28;20501;-80
2021/08/15 07:58:06;;;;;;;13.23;3.38;;;;;;;-145.71;100.00;60690.53;5032157;28;20040;-80
2021/08/15 08:00:31;;;;;;;12.57;3.63;;;;;;;-145.71;100.00;60690.53;5014429;28;20029;-81
2021/08/15 08:02:57;;;;;;;14.88;4.53;;;;;;;-145.71;100.00;60690.53;5032275;28;20036;-80
2021/08/15 08:05:22;;;;;;;13.80;4.05;;;;;;;-145.71;100.00;60690.53;5031653;28;20033;-80
2021/08/15 08:07:47;;;;;;;16.27;3.97;;;;;;;-145.71;100.00;60690.53;5016230;28;20060;-81
2021/08/15 08:10:13;;;;;;;12.65;3.85;;;;;;;-145.71;100.00;60690.53;5035090;28;20037;-81
2021/08/15 08:12:38;;;;;;;15.18;3.60;;;;;;;-145.71;100.00;60690.53;5017459;28;20101;-81
2021/08/15 08:15:04;;;;;;;12.05;3.60;;;;;;;-145.71;100.00;60690.53;5036573;28;20029;-81
2021/08/15 08:17:30;;;;;;;14.85;4.05;;;;;;;-145.71;100.00;60690.53;5016592;28;20025;-81
2021/08/15 08:19:55;;;;;;;9.93;3.22;;;;;;;-145.71;100.00;60690.53;5034187;28;20055;-81
2021/08/15 08:22:20;;;;;;;15.30;3.97;;;;;;;-145.71;100.00;60690.53;5034299;28;20075;-81
2021/08/15 08:24:45;;;;;;;12.85;3.05;;;;;;;-145.71;100.00;60690.53;5034448;28;20077;-80
2021/08/15 08:27:11;;;;;;;11.32;2.85;;;;;;;-145.71;100.00;60690.53;5033946;28;20049;-81
2021/08/15 08:29:37;;;;;;;10.05;2.75;;;;;;;-145.71;100.00;60690.53;5033649;28;20743;-81
2021/08/15 08:32:02;;;;;;;13.82;3.55;;;;;;;-145.71;100.00;60690.53;5032560;28;20053;-81
2021/08/15 08:34:28;;;;;;;9.88;2.97;;;;;;;-145.71;100.00;60690.53;5032636;28;20033;-81
2021/08/15 08:36:53;;;;;;;13.43;3.35;;;;;;;-145.71;100.00;60690.53;5031682;28;20477;-83
2021/08/15 08:39:19;;;;;;;11.45;3.08;;;;;;;-145.71;100.00;60690.53;5014019;28;20036;-81
2021/08/15 08:41:44;;;;;;;12.68;3.20;;;;;;;-145.71;100.00;60690.53;5034486;28;20045;-81
2021/08/15 08:44:10;;;;;;;11.88;3.17;;;;;;;-145.71;100.00;60690.53;5032803;28;20053;-81
2021/08/15 08:46:36;;;;;;;13.60;3.55;;;;;;;-145.71;100.00;60690.53;5031642;28;20524;-80
2021/08/15 08:49:02;;;;;;;11.82;3.25;;;;;;;-145.71;100.00;60690.53;5030627;28;20033;-80
2021/08/15 08:51:29;;;;;;;7.22;2.83;;;;;;;-145.71;100.00;60690.53;5011065;28;20026;-81
2021/08/15 08:53:54;;;;;;;10.10;3.03;;;;;;;-145.71;100.00;60690.53;5030105;28;20025;-80
2021/08/15 08:56:23;;;;;;;16.27;3.30;;;;;;;-145.71;100.00;60690.53;5029329;28;20362;-80
2021/08/15 08:58:50;;;;;;;9.15;2.83;;;;;;;-145.71;100.00;60690.53;5034838;28;20033;-81
2021/08/15 09:01:15;;;;;;;13.10;3.17;;;;;;;-145.71;100.00;60690.53;5033922;28;20021;-81
2021/08/15 09:03:41;;;;;;;18.77;3.88;;;;;;;-145.71;100.00;60690.53;5032908;28;20108;-81
2021/08/15 09:06:24;;;;;;;14.20;3.00;;;;;;;-145.71;100.00;60690.53;5030388;28;20500;-80
2021/08/15 09:08:51;;;;;;;19.40;4.28;;;;;;;-145.71;100.00;60690.53;5030760;28;20056;-81
2021/08/15 09:11:26;;;;;;;13.18;3.50;;;;;;;-145.71;100.00;60690.53;5030533;28;20111;-81
2021/08/15 09:14:10;;;;;;;37.80;4.05;;;;;;;-145.71;100.00;60690.53;5030271;28;20537;-81
2021/08/15 09:16:58;;;;;;;17.88;4.63;;;;;;;-145.71;100.00;60690.53;5033498;28;20203;-81
2021/08/15 09:19:47;;;;;;;7.95;2.90;;;;;;;-145.71;100.00;60690.53;5015230;28;20060;-81
2021/08/15 09:22:28;;;;;;;11.32;3.45;;;;;;;-145.71;100.00;60690.53;5016156;28;20041;-81
2021/08/15 09:24:59;;;;;;;17.35;3.50;;;;;;;-145.71;100.00;60690.53;5030364;28;20076;-81
2021/08/15 09:27:25;;;;;;;17.38;3.83;;;;;;;-145.71;100.00;60690.53;5030167;28;20033;-81
2021/08/15 09:30:14;;;;;;;11.50;3.60;;;;;;;-145.71;100.00;60690.53;5030104;28;20040;-80
2021/08/15 09:32:48;;;;;;;14.23;3.83;;;;;;;-145.71;100.00;60690.53;5011852;28;20083;-81
2021/08/15 09:35:20;;;;;;;11.48;2.75;;;;;;;-145.71;100.00;60690.53;5032855;28;20029;-81
2021/08/15 09:37:46;;;;;;;13.15;3.80;;;;;;;-145.71;100.00;60690.53;5034001;28;20036;-81
2021/08/15 09:40:26;;;;;;;11.07;4.10;;;;;;;-145.71;100.00;60690.53;5032892;28;20029;-81
2021/08/15 09:42:52;;;;;;;9.48;3.92;;;;;;;-145.71;100.00;60690.53;5013639;28;20033;-81
2021/08/15 09:45:32;;;;;;;11.93;3.92;;;;;;;-145.71;100.00;60690.53;5030211;28;20112;-80
2021/08/15 09:48:15;;;;;;;11.30;3.05;;;;;;;-145.71;100.00;60690.53;5029693;28;20473;-81
2021/08/15 09:50:41;;;;;;;13.48;3.30;;;;;;;-145.71;100.00;60690.53;5029808;28;20133;-81
2021/08/15 09:53:06;;;;;;;17.17;4.15;;;;;;;-145.71;100.00;60690.53;5011835;28;20112;-81
2021/08/15 09:55:45;;;;;;;12.00;3.78;;;;;;;-145.71;100.00;60690.53;5032545;28;20040;-81
2021/08/15 09:58:18;;;;;;;9.30;3.42;;;;;;;-145.71;100.00;60690.53;5016475;28;20056;-81
2021/08/15 10:00:43;;;;;;;8.23;2.70;;;;;;;-145.71;100.00;60690.53;5033597;28;20477;-81
2021/08/15 10:03:09;;;;;;;9.80;2.75;;;;;;;-145.71;100.00;60690.53;5032154;28;20087;-81
2021/08/15 10:05:35;;;;;;;10.85;3.38;;;;;;;-145.71;100.00;60690.53;5035054;28;20397;-81
2021/08/15 10:08:02;;;;;;;10.38;3.00;;;;;;;-145.71;100.00;60690.53;5016359;28;20080;-81
2021/08/15 10:10:28;;;;;;;12.98;3.35;;;;;;;-145.71;100.00;60690.53;5034417;28;20427;-81
2021/08/15 10:12:53;;;;;;;12.43;3.20;;;;;;;-145.71;100.00;60690.53;5015230;28;20384;-81
2021/08/15 10:15:18;;;;;;;8.68;2.90;;;;;;;-145.71;100.00;60690.53;5016135;28;20029;-81
2021/08/15 10:17:46;;;;;;;11.45;3.88;;;;;;;-145.71;100.00;60690.53;5037438;28;20021;-81
2021/08/15 10:20:18;;;;;;;8.65;3.08;;;;;;;-145.71;100.00;60690.53;5020008;28;20045;-81
2021/08/15 10:22:44;;;;;;;9.60;2.78;;;;;;;-145.71;100.00;60690.53;5036250;28;20080;-81
2021/08/15 10:25:10;;;;;;;11.05;3.05;;;;;;;-145.71;100.00;60690.53;5033559;28;20064;-81
2021/08/15 10:27:38;;;;;;;11.70;2.97;;;;;;;-145.71;100.00;60690.53;5033391;28;20188;-81
2021/08/15 10:30:24;;;;;;;10.65;3.00;;;;;;;-145.71;100.00;60690.53;5033454;28;20429;-81
2021/08/15 10:32:55;;;;;;;6.85;2.83;;;;;;;-145.71;100.00;60690.53;5035445;28;20034;-81
2021/08/15 10:35:20;;;;;;;;;;;;;;;-145.71;100.00;60690.53;5036471;28;20083;-81
2021/08/15 10:37:47;;;;;;;10.30;3.45;;;;;;;-145.71;100.00;60690.53;5037459;28;20288;-81
2021/08/15 10:40:38;;;;;;;5.60;2.50;;;;;;;-145.71;100.00;60690.53;5037121;28;20032;-81
2021/08/15 10:43:04;;;;;;;18.02;4.57;;;;;;;-145.71;100.00;60690.53;5034822;28;20079;-81
2021/08/15 10:45:29;;;;;;;14.55;3.28;;;;;;;-145.71;100.00;60690.53;5032906;28;20033;-81
2021/08/15 10:48:12;;;;;;;10.80;3.40;;;;;;;-145.71;100.00;60690.53;5015067;28;20025;-81
2021/08/15 10:50:55;;;;;;;12.68;3.42;;;;;;;-145.71;100.00;60690.53;5032640;28;20025;-81
2021/08/15 10:53:29;;;;;;;11.18;2.95;;;;;;;-145.71;100.00;60690.53;5033380;28;20025;-81
2021/08/15 10:55:59;;;;;;;7.28;3.60;;;;;;;-145.71;100.00;60690.53;5037559;28;20036;-81
2021/08/15 10:58:38;;;;;;;12.68;3.15;;;;;;;-145.71;100.00;60690.53;5036292;28;20531;-81
2021/08/15 11:01:11;;;;;;;16.00;3.63;;;;;;;-145.71;100.00;60690.53;5016275;28;20036;-81